Time;durP1;ratioP1;P1;durP2;ratioP2;P2;SDS_P1;SDS_P2;PMS_P1;PMS_P2;Temp;Humidity;BMP_temperature;BMP_pressure;BME280_temperature;BME280_humidity;BME280_pressure;Samples;Min_cycle;Max_cycle;Signal;HPM_P1;HPM_P2
2022/03/22 00:00:24;;;;;;;4.23;3.93;;;26.30;43.80;;;;;;4977907;28;20452;-85
2022/03/22 00:02:51;;;;;;;4.20;4.00;;;26.30;43.80;;;;;;4977526;28;20453;-86
2022/03/22 00:05:18;;;;;;;5.10;4.70;;;26.30;43.80;;;;;;4977506;28;20452;-85
2022/03/22 00:07:46;;;;;;;4.33;4.03;;;26.30;43.70;;;;;;4977136;28;20992;-85
2022/03/22 00:10:14;;;;;;;4.60;4.30;;;26.30;43.70;;;;;;4977293;28;20452;-85
2022/03/22 00:12:41;;;;;;;4.67;4.37;;;26.30;43.70;;;;;;4977284;28;20449;-84
2022/03/22 00:15:09;;;;;;;4.57;4.27;;;26.30;43.70;;;;;;4977354;28;20480;-85
2022/03/22 00:17:37;;;;;;;4.87;4.47;;;26.30;43.70;;;;;;4977308;28;20445;-84
2022/03/22 00:20:05;;;;;;;5.07;4.57;;;26.30;43.70;;;;;;4977189;28;20508;-84
2022/03/22 00:22:32;;;;;;;4.80;4.40;;;26.20;43.60;;;;;;4977032;28;20445;-84
2022/03/22 00:25:00;;;;;;;5.00;4.60;;;26.20;43.60;;;;;;4976672;28;20460;-84
2022/03/22 00:27:26;;;;;;;5.00;4.60;;;26.30;43.60;;;;;;4977266;28;20448;-84
2022/03/22 00:29:53;;;;;;;4.50;4.20;;;26.20;43.60;;;;;;4976859;28;20839;-85
2022/03/22 00:32:20;;;;;;;4.40;4.10;;;26.20;43.70;;;;;;4977046;28;20449;-84
2022/03/22 00:34:46;;;;;;;4.53;4.23;;;26.20;43.60;;;;;;4976859;28;20448;-85
2022/03/22 00:37:15;;;;;;;4.63;4.33;;;26.20;43.60;;;;;;4977116;28;20449;-84
2022/03/22 00:39:43;;;;;;;4.10;3.80;;;26.40;43.70;;;;;;4976849;28;20555;-84
2022/03/22 00:42:11;;;;;;;4.27;3.97;;;26.20;43.70;;;;;;4976778;28;20473;-84
2022/03/22 00:44:38;;;;;;;4.67;4.37;;;26.20;43.60;;;;;;4979248;28;20446;-84
2022/03/22 00:47:06;;;;;;;5.47;5.00;;;26.10;43.60;;;;;;4977790;28;20449;-84
2022/03/22 00:49:34;;;;;;;4.43;4.13;;;26.10;43.60;;;;;;4977946;28;20452;-84
2022/03/22 00:52:01;;;;;;;4.90;4.50;;;26.10;43.60;;;;;;4976434;28;21019;-84
2022/03/22 00:54:29;;;;;;;4.97;4.67;;;26.10;43.60;;;;;;4976555;28;20452;-84
2022/03/22 00:56:56;;;;;;;4.60;4.30;;;26.10;43.60;;;;;;4976501;28;20448;-84
2022/03/22 01:02:08;;;;;;;4.83;4.50;;;26.10;43.60;;;;;;4976429;28;20760;-85
2022/03/22 01:04:36;;;;;;;5.07;4.67;;;26.20;43.70;;;;;;4976525;28;20437;-84
2022/03/22 01:07:04;;;;;;;4.27;3.97;;;26.20;43.70;;;;;;4977044;28;20448;-86
2022/03/22 01:09:31;;;;;;;4.90;4.50;;;26.00;43.60;;;;;;4976377;28;20449;-85
2022/03/22 01:11:58;;;;;;;4.53;4.23;;;26.00;43.60;;;;;;4976199;28;20797;-86
2022/03/22 01:14:27;;;;;;;4.63;4.30;;;26.10;43.60;;;;;;4975911;28;20944;-85
2022/03/22 01:16:54;;;;;;;5.00;4.60;;;26.00;43.60;;;;;;4976453;28;20445;-86
2022/03/22 01:19:22;;;;;;;4.87;4.47;;;26.20;43.70;;;;;;4975763;28;21033;-85
2022/03/22 01:21:48;;;;;;;5.37;4.87;;;26.00;43.60;;;;;;4976199;28;20449;-85
2022/03/22 01:24:15;;;;;;;4.40;4.00;;;26.00;43.60;;;;;;4976020;28;20460;-86
2022/03/22 01:26:43;;;;;;;4.87;4.47;;;26.00;43.70;;;;;;4976475;28;20449;-84
2022/03/22 01:29:12;;;;;;;4.03;3.73;;;26.00;43.70;;;;;;4978196;28;20529;-83
2022/03/22 01:31:40;;;;;;;4.27;3.97;;;26.00;43.70;;;;;;4976074;28;20512;-84
2022/03/22 01:34:08;;;;;;;4.43;4.13;;;26.00;43.70;;;;;;4975202;28;20456;-85
2022/03/22 01:36:35;;;;;;;4.40;4.10;;;26.00;43.80;;;;;;4975686;28;20489;-84
2022/03/22 01:39:01;;;;;;;5.00;4.60;;;26.00;43.80;;;;;;4958135;28;20559;-84
2022/03/22 01:41:28;;;;;;;5.17;4.77;;;26.00;43.80;;;;;;4975735;28;20449;-84
2022/03/22 01:47:19;;;;;;;5.33;4.93;;;26.00;43.80;;;;;;4975739;28;20445;-85
2022/03/22 01:49:47;;;;;;;4.17;3.93;;;25.90;43.90;;;;;;4975606;28;20452;-85
2022/03/22 01:52:15;;;;;;;4.70;4.40;;;25.90;43.90;;;;;;4976263;28;20481;-85
2022/03/22 01:54:42;;;;;;;5.50;5.10;;;26.00;43.90;;;;;;4976057;28;20454;-85
2022/03/22 01:57:10;;;;;;;4.70;4.33;;;26.10;44.00;;;;;;4975230;28;20460;-85
2022/03/22 01:59:37;;;;;;;5.33;4.93;;;25.90;43.90;;;;;;4975455;28;20500;-85
2022/03/22 02:07:38;;;;;;;4.70;4.30;;;25.90;43.90;;;;;;4975182;28;20426;-85
2022/03/22 02:10:06;;;;;;;4.97;4.57;;;25.90;44.00;;;;;;4975357;28;20451;-95
2022/03/22 02:12:32;;;;;;;4.90;4.50;;;25.80;43.90;;;;;;4975382;28;20488;-85
2022/03/22 02:14:59;;;;;;;4.83;4.53;;;25.80;43.90;;;;;;4975470;28;20442;-85
2022/03/22 02:17:26;;;;;;;4.93;4.53;;;25.90;43.90;;;;;;4967628;28;20452;-85
2022/03/22 02:19:55;;;;;;;5.10;4.70;;;26.00;44.00;;;;;;4975763;28;20489;-84
2022/03/22 02:22:29;;;;;;;5.20;4.80;;;25.90;43.90;;;;;;4974837;28;20445;-84
2022/03/22 02:24:57;;;;;;;4.63;4.27;;;26.00;44.00;;;;;;4975103;28;20896;-84
2022/03/22 02:27:29;;;;;;;5.40;5.00;;;25.90;44.00;;;;;;4975055;28;20445;-84
2022/03/22 02:29:56;;;;;;;4.90;4.50;;;25.80;43.90;;;;;;4974623;28;20976;-84
2022/03/22 02:32:24;;;;;;;4.60;4.30;;;25.80;44.00;;;;;;4975077;28;20445;-85
2022/03/22 02:34:51;;;;;;;4.23;3.93;;;25.80;44.00;;;;;;4974799;28;20504;-85
2022/03/22 02:37:17;;;;;;;4.90;4.60;;;25.80;44.00;;;;;;4975083;28;20802;-85
2022/03/22 02:39:44;;;;;;;5.23;4.87;;;25.80;44.00;;;;;;4974924;28;20859;-85
2022/03/22 02:42:12;;;;;;;4.27;3.97;;;25.80;44.00;;;;;;4975076;28;20456;-85
2022/03/22 02:44:39;;;;;;;4.93;4.63;;;25.80;44.00;;;;;;4974968;28;20449;-86
2022/03/22 02:47:06;;;;;;;4.90;4.50;;;25.80;44.00;;;;;;4978195;28;20449;-85
2022/03/22 02:49:34;;;;;;;5.00;4.60;;;25.80;44.00;;;;;;4979407;28;20457;-85
2022/03/22 02:52:01;;;;;;;5.00;4.70;;;25.70;44.00;;;;;;4978953;28;20481;-85
2022/03/22 02:54:27;;;;;;;4.60;4.20;;;25.70;43.90;;;;;;4979555;28;20472;-85
2022/03/22 02:56:54;;;;;;;4.90;4.60;;;25.70;44.00;;;;;;4978812;28;20445;-85
2022/03/22 02:59:22;;;;;;;4.70;4.40;;;25.70;44.10;;;;;;4978689;28;20492;-85
2022/03/22 03:01:49;;;;;;;5.20;4.80;;;25.70;44.10;;;;;;4978692;28;20445;-85
2022/03/22 03:04:16;;;;;;;4.33;4.03;;;25.70;44.10;;;;;;4978947;28;20928;-85
2022/03/22 03:06:42;;;;;;;5.17;4.77;;;25.70;44.10;;;;;;4978660;28;20453;-85
2022/03/22 03:09:10;;;;;;;4.57;4.27;;;25.70;44.10;;;;;;4978714;28;20844;-86
2022/03/22 03:11:37;;;;;;;4.30;4.00;;;25.70;44.10;;;;;;4978704;28;20991;-85
2022/03/22 03:16:49;;;;;;;4.50;4.20;;;25.70;44.10;;;;;;4978862;28;20409;-85
2022/03/22 03:19:15;;;;;;;4.67;4.37;;;25.70;44.20;;;;;;4978418;28;20496;-85
2022/03/22 03:21:42;;;;;;;4.93;4.57;;;25.60;44.10;;;;;;4978623;28;20470;-85
2022/03/22 03:24:09;;;;;;;4.70;4.40;;;25.70;44.20;;;;;;4977973;28;20452;-85
2022/03/22 03:26:36;;;;;;;4.20;3.90;;;25.70;44.80;;;;;;4978494;28;20812;-85
2022/03/22 03:29:03;;;;;;;4.93;4.63;;;25.70;44.20;;;;;;4978256;28;20445;-85
2022/03/22 03:31:30;;;;;;;4.43;4.13;;;25.70;44.10;;;;;;4977767;28;20556;-85
2022/03/22 03:33:58;;;;;;;4.53;4.17;;;25.60;44.10;;;;;;4978112;28;20453;-85
2022/03/22 03:36:25;;;;;;;5.67;5.23;;;25.60;44.10;;;;;;4978064;28;20449;-85
2022/03/22 03:38:51;;;;;;;4.07;3.77;;;25.60;44.10;;;;;;4978049;28;20481;-85
2022/03/22 03:47:03;;;;;;;4.90;4.50;;;25.60;44.10;;;;;;4978142;28;20432;-85
2022/03/22 03:47:03;;;;;;;4.13;3.83;;;25.60;44.10;;;;;;4977760;28;20420;-85
2022/03/22 03:49:33;;;;;;;4.30;3.90;;;25.60;44.20;;;;;;4979196;28;20436;-86
2022/03/22 03:52:00;;;;;;;5.40;4.73;;;25.60;44.20;;;;;;4978315;28;20500;-85
2022/03/22 03:54:27;;;;;;;5.10;4.70;;;25.60;44.20;;;;;;4978911;28;20847;-84
2022/03/22 03:56:55;;;;;;;4.90;4.40;;;25.60;44.20;;;;;;4977596;28;20503;-86
2022/03/22 03:59:22;;;;;;;3.80;3.60;;;25.60;44.10;;;;;;4977894;28;20473;-84
2022/03/22 04:01:49;;;;;;;4.87;4.50;;;25.50;44.20;;;;;;4977753;28;20453;-84
2022/03/22 04:04:16;;;;;;;4.40;4.10;;;25.50;44.10;;;;;;4977838;28;20810;-84
2022/03/22 04:06:45;;;;;;;4.57;4.27;;;25.50;44.20;;;;;;4977975;28;20445;-84
2022/03/22 04:09:12;;;;;;;4.63;4.33;;;25.50;44.10;;;;;;4977965;28;20453;-84
2022/03/22 04:11:39;;;;;;;4.57;4.27;;;25.50;44.10;;;;;;4977817;28;20504;-85
2022/03/22 04:14:07;;;;;;;5.00;4.70;;;25.50;44.10;;;;;;4977829;28;20544;-84
2022/03/22 04:16:34;;;;;;;4.87;4.57;;;25.50;44.10;;;;;;4978113;28;20486;-85
2022/03/22 04:19:01;;;;;;;4.83;4.53;;;25.50;44.20;;;;;;4977251;28;21022;-83
2022/03/22 04:21:29;;;;;;;5.60;5.10;;;25.50;44.20;;;;;;4977820;28;20445;-84
2022/03/22 04:23:58;;;;;;;5.10;4.70;;;25.50;44.10;;;;;;4977604;28;20453;-84
2022/03/22 04:26:25;;;;;;;4.57;4.27;;;25.50;44.10;;;;;;4969812;28;20477;-84
2022/03/22 04:34:20;;;;;;;4.87;4.57;;;25.50;44.20;;;;;;4980233;28;20425;-87
2022/03/22 04:36:55;;;;;;;4.27;3.97;;;25.40;44.20;;;;;;4980449;28;20871;-86
2022/03/22 04:39:24;;;;;;;4.60;4.30;;;25.50;44.20;;;;;;4977070;28;20507;-85
2022/03/22 04:41:51;;;;;;;4.23;3.93;;;25.40;44.20;;;;;;4977286;28;20449;-84
2022/03/22 04:44:18;;;;;;;5.00;4.70;;;25.40;44.20;;;;;;4977043;28;20520;-84
2022/03/22 04:46:45;;;;;;;4.67;4.37;;;25.40;44.20;;;;;;4976969;28;20449;-83
2022/03/22 04:49:12;;;;;;;5.10;4.70;;;25.40;44.20;;;;;;4976758;28;20940;-84
2022/03/22 04:57:09;;;;;;;4.47;4.07;;;25.40;44.20;;;;;;4977061;28;20432;-84
2022/03/22 04:59:36;;;;;;;4.97;4.60;;;25.40;44.20;;;;;;4977075;28;20492;-84
2022/03/22 05:02:02;;;;;;;5.00;4.60;;;25.40;44.20;;;;;;4976975;28;20457;-84
2022/03/22 05:04:29;;;;;;;5.20;4.70;;;25.40;44.30;;;;;;4976841;28;20449;-84
2022/03/22 05:06:56;;;;;;;4.60;4.30;;;25.30;44.20;;;;;;4976730;28;20450;-84
2022/03/22 05:09:23;;;;;;;4.33;3.93;;;25.30;44.30;;;;;;4975379;28;20472;-84
2022/03/22 05:11:51;;;;;;;4.80;4.40;;;25.30;44.20;;;;;;4976368;28;20496;-83
2022/03/22 05:14:18;;;;;;;5.33;4.83;;;25.30;44.20;;;;;;4977468;28;20449;-83
2022/03/22 05:16:45;;;;;;;4.77;4.47;;;25.30;44.30;;;;;;4976447;28;20445;-83
2022/03/22 05:19:13;;;;;;;5.20;4.70;;;25.30;44.30;;;;;;4975884;28;21016;-84
2022/03/22 05:21:40;;;;;;;5.07;4.30;;;25.30;44.30;;;;;;4976325;28;20811;-84
2022/03/22 05:24:07;;;;;;;4.40;4.10;;;25.30;44.30;;;;;;4976425;28;20453;-84
2022/03/22 05:26:34;;;;;;;5.60;5.10;;;25.30;44.30;;;;;;4976622;28;20445;-85
2022/03/22 05:29:04;;;;;;;4.30;4.00;;;25.30;44.30;;;;;;4976057;28;20461;-84
2022/03/22 05:31:31;;;;;;;5.50;5.10;;;25.40;44.40;;;;;;4975619;28;20485;-84
2022/03/22 05:33:59;;;;;;;4.10;3.80;;;25.30;44.30;;;;;;4975965;28;20456;-84
2022/03/22 05:36:26;;;;;;;4.80;4.40;;;25.30;44.30;;;;;;4968646;28;20457;-82
2022/03/22 05:38:53;;;;;;;4.97;4.63;;;25.20;44.30;;;;;;4976996;28;20448;-84
2022/03/22 05:41:20;;;;;;;4.27;3.97;;;25.30;44.30;;;;;;4975829;28;20493;-85
2022/03/22 05:43:47;;;;;;;5.17;4.77;;;25.30;44.30;;;;;;4977719;28;20951;-84
2022/03/22 05:46:16;;;;;;;4.80;4.50;;;25.30;44.10;;;;;;4978269;28;20449;-83
2022/03/22 05:48:43;;;;;;;4.57;4.17;;;25.30;44.10;;;;;;4976807;28;20452;-84
2022/03/22 05:51:10;;;;;;;3.93;3.73;;;25.50;44.10;;;;;;4976422;28;20453;-85
2022/03/22 05:53:37;;;;;;;4.90;4.50;;;25.40;44.60;;;;;;4975374;28;20449;-84
2022/03/22 05:56:04;;;;;;;4.93;4.53;;;25.40;44.00;;;;;;4975851;28;20457;-84
2022/03/22 05:58:32;;;;;;;4.80;4.50;;;25.40;44.00;;;;;;4975697;28;20456;-84
2022/03/22 06:01:00;;;;;;;4.40;4.10;;;25.40;43.90;;;;;;4975405;28;20493;-84
2022/03/22 06:03:28;;;;;;;4.30;3.93;;;25.50;43.90;;;;;;4975492;28;20877;-83
2022/03/22 06:05:55;;;;;;;4.87;4.57;;;25.50;43.80;;;;;;4975989;28;20448;-83
2022/03/22 06:08:21;;;;;;;4.27;3.97;;;25.50;43.80;;;;;;4976259;28;20460;-84
2022/03/22 06:10:49;;;;;;;4.70;4.40;;;25.50;43.70;;;;;;4975494;28;20456;-85
2022/03/22 06:13:15;;;;;;;4.27;3.97;;;25.60;43.70;;;;;;4975290;28;20453;-83
2022/03/22 06:15:43;;;;;;;6.87;6.37;;;25.60;43.70;;;;;;4975719;28;20449;-84
2022/03/22 06:18:11;;;;;;;5.40;5.00;;;25.80;43.20;;;;;;4975618;28;20849;-91
2022/03/22 06:20:41;;;;;;;5.03;4.67;;;25.70;43.50;;;;;;4974846;28;20496;-81
2022/03/22 06:23:10;;;;;;;5.43;5.00;;;25.70;43.70;;;;;;4975425;28;20497;-81
2022/03/22 06:25:37;;;;;;;6.03;5.53;;;25.70;43.60;;;;;;4975066;28;20449;-82
2022/03/22 06:28:06;;;;;;;5.17;4.77;;;25.70;43.50;;;;;;4975006;28;20817;-81
2022/03/22 06:30:34;;;;;;;4.97;4.57;;;25.80;43.40;;;;;;4974743;28;20568;-85
2022/03/22 06:33:08;;;;;;;4.80;4.50;;;25.80;43.50;;;;;;4975002;28;20802;-81
2022/03/22 06:35:35;;;;;;;4.60;4.20;;;25.80;43.40;;;;;;4974954;28;20448;-82
2022/03/22 06:38:04;;;;;;;5.00;4.60;;;25.80;43.40;;;;;;4974946;28;20462;-81
2022/03/22 06:40:34;;;;;;;5.27;4.77;;;25.90;43.30;;;;;;4974868;28;20575;-83
2022/03/22 06:43:02;;;;;;;4.80;4.40;;;26.00;43.40;;;;;;4975009;28;20539;-82
2022/03/22 06:45:29;;;;;;;5.17;4.77;;;25.90;43.30;;;;;;4974592;28;20449;-85
2022/03/22 06:47:56;;;;;;;4.53;4.23;;;25.90;43.30;;;;;;4974886;28;20452;-84
2022/03/22 06:50:24;;;;;;;5.13;4.73;;;26.00;43.30;;;;;;4974954;28;20878;-80
2022/03/22 06:52:51;;;;;;;5.03;4.70;;;26.00;43.30;;;;;;4974906;28;20480;-82
2022/03/22 06:55:22;;;;;;;5.43;5.03;;;26.00;43.30;;;;;;4975022;28;20449;-82
2022/03/22 06:57:50;;;;;;;5.17;4.80;;;26.20;43.40;;;;;;4974887;28;20429;-84
2022/03/22 07:00:19;;;;;;;5.13;4.63;;;26.10;43.30;;;;;;4974749;28;20516;-82
2022/03/22 07:02:47;;;;;;;5.80;5.40;;;26.10;43.40;;;;;;4974992;28;20540;-81
2022/03/22 07:05:13;;;;;;;5.43;5.07;;;26.10;43.30;;;;;;4974720;28;20454;-82
2022/03/22 07:07:40;;;;;;;8.10;7.40;;;26.10;43.70;;;;;;4974549;28;20449;-81
2022/03/22 07:10:10;;;;;;;6.03;5.43;;;26.20;43.70;;;;;;4974910;28;20458;-81
2022/03/22 07:12:51;;;;;;;10.27;4.80;;;26.10;43.70;;;;;;4974366;28;20449;-84
2022/03/22 07:15:18;;;;;;;5.23;4.93;;;26.20;43.60;;;;;;4974741;28;20440;-84
2022/03/22 07:17:45;;;;;;;5.30;4.90;;;26.20;43.30;;;;;;4975144;28;20468;-81
2022/03/22 07:20:13;;;;;;;5.07;4.77;;;26.20;43.30;;;;;;4974342;28;20576;-82
2022/03/22 07:22:42;;;;;;;5.47;4.97;;;26.30;43.30;;;;;;4974657;28;20528;-84
2022/03/22 07:25:09;;;;;;;5.40;5.03;;;26.30;43.30;;;;;;4974607;28;20504;-81
2022/03/22 07:27:36;;;;;;;7.10;5.10;;;26.30;43.40;;;;;;4974485;28;20449;-82
2022/03/22 07:30:05;;;;;;;5.57;5.07;;;26.30;43.50;;;;;;4974027;28;20485;-85
2022/03/22 07:32:32;;;;;;;5.33;4.93;;;26.30;43.40;;;;;;4975361;28;20449;-82
2022/03/22 07:35:00;;;;;;;9.63;6.13;;;26.30;43.50;;;;;;4978988;28;20452;-81
2022/03/22 07:37:28;;;;;;;6.43;5.93;;;26.40;43.60;;;;;;4978116;28;20532;-80
2022/03/22 07:39:56;;;;;;;4.83;4.43;;;26.40;44.00;;;;;;4978398;28;20975;-91
2022/03/22 07:42:27;;;;;;;5.83;5.37;;;26.40;44.10;;;;;;4979023;28;20512;-90
2022/03/22 07:44:55;;;;;;;5.87;5.47;;;26.40;43.90;;;;;;4978333;28;20437;-85
2022/03/22 07:47:24;;;;;;;5.00;4.50;;;26.40;44.00;;;;;;4978125;28;20449;-85
2022/03/22 07:55:21;;;;;;;5.57;5.00;;;26.40;44.10;;;;;;4979028;28;20627;-84
2022/03/22 07:57:48;;;;;;;4.70;4.30;;;26.40;44.00;;;;;;4960903;28;20445;-86
2022/03/22 08:00:18;;;;;;;4.93;4.57;;;26.40;44.20;;;;;;4977863;28;20964;-84
2022/03/22 08:06:08;;;;;;;7.00;6.40;;;26.50;44.40;;;;;;4977756;28;20493;-85
2022/03/22 08:08:37;;;;;;;5.90;5.40;;;26.40;44.00;;;;;;4977858;28;20504;-86
2022/03/22 08:11:06;;;;;;;5.53;5.07;;;26.40;43.60;;;;;;4977719;28;20445;-86
2022/03/22 08:13:34;;;;;;;6.33;5.10;;;26.40;43.50;;;;;;4977774;28;20452;-89
2022/03/22 08:16:01;;;;;;;5.33;4.80;;;26.40;43.40;;;;;;4977739;28;20485;-87
2022/03/22 08:18:28;;;;;;;5.20;4.80;;;26.30;43.50;;;;;;4977637;28;20454;-87
2022/03/22 08:20:54;;;;;;;5.47;5.07;;;26.50;43.60;;;;;;4977568;28;20492;-85
2022/03/22 08:23:22;;;;;;;5.00;4.60;;;26.30;43.30;;;;;;4977482;28;20454;-83
2022/03/22 08:25:51;;;;;;;4.30;3.90;;;26.40;44.20;;;;;;4977193;28;20812;-85
2022/03/22 08:28:19;;;;;;;4.63;4.23;;;26.40;44.60;;;;;;4976831;28;20492;-85
2022/03/22 08:30:46;;;;;;;4.97;4.57;;;26.40;44.60;;;;;;4977144;28;20485;-83
2022/03/22 08:33:13;;;;;;;4.67;3.93;;;26.40;44.40;;;;;;4976830;28;20503;-85
2022/03/22 08:35:43;;;;;;;5.00;4.50;;;26.50;44.60;;;;;;4977339;28;20453;-85
2022/03/22 08:38:11;;;;;;;4.77;4.37;;;26.50;44.20;;;;;;4977031;28;20445;-84
2022/03/22 08:40:39;;;;;;;4.30;4.00;;;26.50;44.60;;;;;;4976976;28;20485;-83
2022/03/22 08:43:07;;;;;;;4.33;3.93;;;26.70;44.80;;;;;;4976957;28;20496;-82
2022/03/22 08:45:35;;;;;;;4.30;3.90;;;26.60;44.70;;;;;;4977001;28;20437;-82
2022/03/22 08:48:09;;;;;;;4.70;4.30;;;26.60;44.60;;;;;;4977031;28;20504;-86
2022/03/22 08:50:37;;;;;;;4.13;3.83;;;26.70;44.70;;;;;;4977303;28;20521;-85
2022/03/22 08:53:05;;;;;;;5.67;3.83;;;26.70;45.20;;;;;;4976591;28;20940;-84
2022/03/22 08:55:32;;;;;;;4.77;4.37;;;26.90;44.80;;;;;;4976840;28;20538;-84
2022/03/22 08:58:05;;;;;;;4.10;3.80;;;26.80;44.70;;;;;;4976529;28;20496;-85
2022/03/22 09:00:32;;;;;;;5.00;4.20;;;26.90;44.70;;;;;;4976706;28;20504;-86
2022/03/22 09:03:00;;;;;;;4.40;4.10;;;26.80;44.60;;;;;;4976888;28;20501;-84
2022/03/22 09:08:11;;;;;;;3.90;3.60;;;26.90;44.60;;;;;;4976846;28;20401;-84
2022/03/22 09:10:37;;;;;;;5.43;4.43;;;26.90;44.70;;;;;;4976113;28;20976;-85
2022/03/22 09:13:07;;;;;;;4.03;3.73;;;26.90;44.70;;;;;;4976317;28;20962;-84
2022/03/22 09:15:36;;;;;;;4.37;4.07;;;26.90;44.70;;;;;;4976353;28;20441;-83
2022/03/22 09:18:03;;;;;;;4.50;4.20;;;26.90;44.70;;;;;;4976300;28;20630;-84
2022/03/22 09:20:32;;;;;;;4.20;3.90;;;27.20;44.80;;;;;;4976370;28;20911;-85
2022/03/22 09:23:00;;;;;;;4.13;3.73;;;27.00;44.70;;;;;;4976093;28;20858;-83
2022/03/22 09:25:28;;;;;;;4.30;4.00;;;27.20;44.90;;;;;;4976099;28;20461;-85
2022/03/22 09:27:56;;;;;;;4.23;3.83;;;27.00;44.70;;;;;;4976130;28;20445;-84
2022/03/22 09:30:25;;;;;;;3.90;3.60;;;27.00;44.70;;;;;;4975955;28;20547;-84
2022/03/22 09:32:52;;;;;;;4.33;4.00;;;27.10;44.80;;;;;;4976162;28;20797;-85
2022/03/22 09:35:20;;;;;;;4.30;4.00;;;27.10;44.80;;;;;;4976053;28;20449;-86
2022/03/22 09:37:49;;;;;;;4.20;3.90;;;27.10;44.80;;;;;;4976034;28;20854;-87
2022/03/22 09:40:18;;;;;;;4.60;4.20;;;27.10;44.80;;;;;;4975771;28;20456;-85
2022/03/22 09:42:46;;;;;;;4.63;3.90;;;27.10;44.80;;;;;;4976252;28;20453;-85
2022/03/22 09:45:14;;;;;;;3.47;3.27;;;27.10;44.80;;;;;;4975894;28;20445;-84
2022/03/22 09:47:44;;;;;;;4.13;3.83;;;27.20;44.80;;;;;;4958480;28;20453;-88
2022/03/22 09:50:12;;;;;;;3.87;3.50;;;27.40;44.90;;;;;;4975981;28;20454;-86
2022/03/22 09:52:40;;;;;;;3.80;3.50;;;27.30;44.90;;;;;;4958638;28;20453;-86
2022/03/22 09:55:08;;;;;;;3.60;3.37;;;27.30;44.80;;;;;;4975568;28;20445;-85
2022/03/22 09:57:36;;;;;;;4.03;3.73;;;27.30;44.90;;;;;;4975603;28;20818;-83
2022/03/22 10:00:03;;;;;;;3.70;3.40;;;27.30;44.90;;;;;;4975345;28;20958;-83
2022/03/22 10:02:32;;;;;;;4.13;3.40;;;27.30;44.90;;;;;;4975508;28;20547;-83
2022/03/22 10:05:00;;;;;;;4.63;4.27;;;27.30;44.90;;;;;;4975473;28;20445;-85
2022/03/22 10:07:28;;;;;;;3.40;3.10;;;27.30;44.90;;;;;;4975419;28;20441;-82
2022/03/22 10:13:16;;;;;;;6.20;5.77;;;27.40;44.60;;;;;;4975188;28;20409;-87
2022/03/22 10:15:43;;;;;;;9.13;5.63;;;27.30;43.10;;;;;;4974933;28;20941;-84
2022/03/22 10:18:12;;;;;;;5.17;4.83;;;27.30;42.80;;;;;;4974950;28;20456;-89
2022/03/22 10:20:41;;;;;;;5.90;5.40;;;27.30;42.70;;;;;;4974870;28;20505;-88
2022/03/22 10:23:10;;;;;;;7.07;6.47;;;27.30;43.50;;;;;;4975037;28;20966;-87
2022/03/22 10:25:40;;;;;;;6.23;5.63;;;27.20;42.50;;;;;;4975187;28;20500;-84
2022/03/22 10:28:08;;;;;;;11.17;7.07;;;27.30;42.40;;;;;;4975024;28;20456;-84
2022/03/22 10:30:35;;;;;;;6.20;5.80;;;27.20;41.60;;;;;;4975132;28;20504;-84
2022/03/22 10:33:03;;;;;;;6.70;6.07;;;27.20;41.40;;;;;;4975150;28;20445;-83
2022/03/22 10:35:32;;;;;;;6.37;5.87;;;27.10;41.50;;;;;;4974873;28;20449;-85
2022/03/22 10:38:02;;;;;;;6.90;6.30;;;27.00;41.40;;;;;;4974690;28;20460;-85
2022/03/22 10:40:31;;;;;;;7.90;7.20;;;27.00;41.40;;;;;;4975058;28;20551;-85
2022/03/22 10:42:59;;;;;;;7.53;6.80;;;27.00;41.30;;;;;;4974854;28;20519;-84
2022/03/22 10:45:27;;;;;;;9.20;6.97;;;27.00;41.60;;;;;;4974584;28;20951;-84
2022/03/22 10:47:54;;;;;;;8.30;5.90;;;27.00;41.90;;;;;;4974513;28;20468;-84
2022/03/22 10:50:21;;;;;;;6.23;5.73;;;27.00;42.00;;;;;;4974593;28;20445;-85
2022/03/22 10:52:53;;;;;;;6.77;6.17;;;27.00;41.60;;;;;;4974819;28;20476;-84
2022/03/22 10:55:24;;;;;;;7.33;6.50;;;27.00;41.30;;;;;;4974922;28;20450;-83
2022/03/22 10:57:53;;;;;;;6.40;5.80;;;27.00;41.60;;;;;;4974564;28;20429;-84
2022/03/22 11:03:43;;;;;;;8.20;6.20;;;27.00;41.70;;;;;;4974622;28;20440;-85
2022/03/22 11:06:10;;;;;;;6.43;5.93;;;26.90;42.00;;;;;;4974720;28;20449;-88
2022/03/22 11:08:40;;;;;;;7.40;6.27;;;26.90;42.10;;;;;;4977113;28;20965;-85
2022/03/22 11:11:09;;;;;;;7.23;6.37;;;26.90;42.20;;;;;;4981060;28;20449;-84
2022/03/22 11:13:36;;;;;;;5.73;5.33;;;26.90;42.00;;;;;;4979530;28;20785;-83
2022/03/22 11:16:04;;;;;;;7.30;6.03;;;26.90;42.20;;;;;;4978447;28;20460;-85
2022/03/22 11:18:31;;;;;;;6.50;5.90;;;26.90;42.20;;;;;;4978455;28;20437;-86
2022/03/22 11:21:01;;;;;;;9.87;5.30;;;26.90;42.20;;;;;;4978246;28;20453;-85
2022/03/22 11:23:30;;;;;;;6.47;5.83;;;26.90;42.20;;;;;;4978490;28;20456;-83
2022/03/22 11:26:09;;;;;;;5.63;5.10;;;26.90;41.90;;;;;;4978181;28;20474;-84
2022/03/22 11:28:36;;;;;;;6.13;5.50;;;26.90;41.80;;;;;;4978785;28;20436;-84
2022/03/22 11:31:04;;;;;;;9.27;6.60;;;26.90;42.00;;;;;;4977800;28;20489;-86
2022/03/22 11:36:19;;;;;;;6.30;5.03;;;26.90;41.60;;;;;;4978355;28;20883;-82
2022/03/22 11:38:48;;;;;;;6.30;5.60;;;26.80;41.40;;;;;;4977993;28;20445;-83
2022/03/22 11:44:09;;;;;;;10.60;5.90;;;26.90;42.10;;;;;;4977738;28;20932;-83
2022/03/22 11:46:36;;;;;;;6.43;5.83;;;26.80;42.00;;;;;;4977922;28;20952;-82
2022/03/22 11:49:21;;;;;;;6.73;6.13;;;26.80;42.00;;;;;;4977860;28;20458;-85
2022/03/22 11:51:54;;;;;;;6.40;5.80;;;26.90;41.90;;;;;;4977842;28;20447;-83
2022/03/22 11:54:22;;;;;;;7.60;5.97;;;26.80;41.90;;;;;;4977579;28;20438;-85
2022/03/22 11:56:52;;;;;;;5.77;5.27;;;26.80;42.00;;;;;;4978639;28;20785;-83
2022/03/22 11:59:21;;;;;;;8.07;5.60;;;26.80;41.90;;;;;;4977711;28;20916;-84
2022/03/22 12:01:56;;;;;;;6.63;5.23;;;27.00;41.90;;;;;;4977570;28;20846;-83
2022/03/22 12:04:34;;;;;;;6.90;5.90;;;26.80;41.80;;;;;;4977244;28;20948;-83
2022/03/22 12:07:02;;;;;;;6.60;5.37;;;26.90;41.90;;;;;;4977638;28;20528;-83
2022/03/22 12:09:28;;;;;;;5.83;5.40;;;27.00;41.90;;;;;;4977586;28;20433;-84
2022/03/22 12:11:58;;;;;;;6.00;4.67;;;26.80;41.70;;;;;;4977445;28;20437;-84
2022/03/22 12:14:27;;;;;;;7.10;5.47;;;26.90;41.80;;;;;;4969645;28;20470;-86
2022/03/22 12:16:54;;;;;;;6.10;5.50;;;26.80;41.70;;;;;;4977399;28;20449;-85
2022/03/22 12:19:28;;;;;;;6.23;5.43;;;26.90;41.80;;;;;;4976866;28;20449;-84
2022/03/22 12:21:56;;;;;;;6.03;5.53;;;26.90;41.70;;;;;;4977271;28;20559;-83
2022/03/22 12:24:24;;;;;;;7.50;5.87;;;26.80;41.60;;;;;;4977567;28;20460;-84
2022/03/22 12:26:51;;;;;;;5.60;5.10;;;26.90;41.50;;;;;;4978257;28;20476;-82
2022/03/22 12:29:21;;;;;;;4.93;4.43;;;26.80;41.50;;;;;;4977780;28;20450;-83
2022/03/22 12:31:49;;;;;;;6.03;5.03;;;26.80;40.50;;;;;;4977263;28;20454;-82
2022/03/22 12:34:16;;;;;;;5.43;4.63;;;26.80;40.50;;;;;;4977095;28;20539;-83
2022/03/22 12:36:43;;;;;;;9.37;4.90;;;26.90;41.20;;;;;;4976960;28;20457;-84
2022/03/22 12:39:10;;;;;;;5.67;4.80;;;27.00;41.20;;;;;;4977219;28;20472;-83
2022/03/22 12:41:37;;;;;;;5.40;4.90;;;26.80;41.10;;;;;;4976978;28;20485;-85
2022/03/22 12:44:06;;;;;;;5.23;4.33;;;26.80;41.20;;;;;;4977256;28;20453;-83
2022/03/22 12:46:35;;;;;;;6.33;4.33;;;26.80;41.20;;;;;;4977284;28;20445;-83
2022/03/22 12:49:03;;;;;;;6.80;4.63;;;26.80;41.00;;;;;;4976823;28;20449;-83
2022/03/22 12:51:31;;;;;;;11.37;5.27;;;26.90;41.00;;;;;;4976708;28;20449;-87
2022/03/22 12:53:58;;;;;;;7.70;5.27;;;27.00;41.00;;;;;;4976439;28;20453;-83
2022/03/22 12:56:25;;;;;;;7.47;4.70;;;26.80;40.80;;;;;;4976677;28;20521;-83
2022/03/22 12:58:52;;;;;;;3.80;3.50;;;26.80;40.60;;;;;;4976743;28;20548;-83
2022/03/22 13:01:19;;;;;;;7.10;4.47;;;26.80;40.80;;;;;;4976629;28;20830;-83
2022/03/22 13:03:47;;;;;;;7.10;5.40;;;26.90;40.80;;;;;;4976371;28;20449;-84
2022/03/22 13:06:14;;;;;;;6.33;5.20;;;26.80;40.50;;;;;;4976343;28;20847;-84
2022/03/22 13:11:28;;;;;;;6.30;4.80;;;26.90;40.60;;;;;;4976523;28;20765;-83
2022/03/22 13:16:39;;;;;;;6.87;4.10;;;26.90;40.80;;;;;;4976381;28;20778;-84
2022/03/22 13:19:07;;;;;;;8.60;3.87;;;27.00;40.60;;;;;;4975998;28;20441;-84
2022/03/22 13:21:37;;;;;;;5.60;4.60;;;26.80;40.40;;;;;;4976182;28;20485;-84
2022/03/22 13:24:05;;;;;;;6.97;4.47;;;26.80;40.40;;;;;;4976195;28;20446;-83
2022/03/22 13:26:33;;;;;;;7.27;4.93;;;26.80;40.30;;;;;;4976610;28;20928;-83
2022/03/22 13:32:30;;;;;;;5.00;4.53;;;26.90;39.70;;;;;;4956444;28;20481;-88
2022/03/22 13:35:03;;;;;;;7.13;4.30;;;26.80;39.80;;;;;;4956580;29;20445;-82
2022/03/22 13:37:31;;;;;;;4.57;3.70;;;27.00;39.50;;;;;;4956539;29;20436;-85
2022/03/22 13:40:08;;;;;;;5.97;3.83;;;26.80;39.90;;;;;;4956162;29;20446;-87
2022/03/22 13:42:36;;;;;;;6.17;3.57;;;26.80;40.00;;;;;;4956202;29;20481;-89
2022/03/22 13:45:06;;;;;;;3.67;3.37;;;26.80;40.00;;;;;;4956385;29;20446;-88
2022/03/22 13:47:35;;;;;;;7.90;4.20;;;26.80;39.90;;;;;;4957296;29;20446;-86
2022/03/22 13:50:12;;;;;;;7.50;5.20;;;26.90;40.00;;;;;;4956823;29;20792;-86